Time;durP1;ratioP1;P1;durP2;ratioP2;P2;SDS_P1;SDS_P2;PMS_P1;PMS_P2;Temp;Humidity;BMP_temperature;BMP_pressure;BME280_temperature;BME280_humidity;BME280_pressure;Samples;Min_cycle;Max_cycle;Signal;HPM_P1;HPM_P2
2021/09/21 00:01:40;;;;;;;0.17;0.17;;;;;;;20.25;57.42;98902.09;5011138;28;20043;-81
2021/09/21 00:04:05;;;;;;;0.30;0.30;;;;;;;20.24;57.23;98899.72;5022573;28;20036;-81
2021/09/21 00:06:30;;;;;;;0.10;0.10;;;;;;;20.24;57.20;98900.50;5029601;28;20061;-82
2021/09/21 00:08:56;;;;;;;0.10;0.10;;;;;;;20.23;56.96;98896.19;5028721;28;20030;-81
2021/09/21 00:11:21;;;;;;;0.03;0.03;;;;;;;20.25;56.89;98896.66;5029632;28;20112;-79
2021/09/21 00:13:47;;;;;;;0.13;0.13;;;;;;;20.24;56.83;98905.94;5011594;28;20044;-81
2021/09/21 00:16:13;;;;;;;0.40;0.40;;;;;;;20.22;56.60;98907.41;5009575;28;20056;-81
2021/09/21 00:18:39;;;;;;;0.10;0.10;;;;;;;20.19;56.72;98914.31;5010794;28;20068;-79
2021/09/21 00:21:04;;;;;;;0.15;0.15;;;;;;;20.18;56.70;98912.72;5022084;28;20394;-79
2021/09/21 00:23:30;;;;;;;0.22;0.22;;;;;;;20.16;56.74;98934.00;5032414;28;20436;-79
2021/09/21 00:25:55;;;;;;;0.32;0.32;;;;;;;20.14;56.70;98928.91;5032788;28;20108;-80
2021/09/21 00:28:21;;;;;;;0.43;0.25;;;;;;;20.10;56.80;98932.66;5033133;28;20113;-79
2021/09/21 00:30:48;;;;;;;0.28;0.28;;;;;;;20.11;57.04;98940.44;5033187;28;20022;-78
2021/09/21 00:33:19;;;;;;;0.00;0.00;;;;;;;20.10;56.93;98943.50;5024983;28;20029;-77
2021/09/21 00:35:47;;;;;;;0.15;0.15;;;;;;;20.03;56.93;98929.72;5014819;28;20033;-77
2021/09/21 00:38:16;;;;;;;0.32;0.32;;;;;;;20.02;56.97;98933.56;5042957;28;20022;-77
2021/09/21 00:40:43;;;;;;;0.00;0.00;;;;;;;19.99;57.12;98940.47;5034289;28;20033;-81
2021/09/21 00:43:09;;;;;;;0.93;0.93;;;;;;;19.93;57.07;98939.94;5032574;28;20025;-77
2021/09/21 00:45:34;;;;;;;0.00;0.00;;;;;;;19.92;56.81;98941.06;5034318;28;20457;-82
2021/09/21 00:48:00;;;;;;;0.00;0.00;;;;;;;19.91;56.17;98944.09;5019462;28;20446;-80
2021/09/21 00:50:27;;;;;;;0.20;0.20;;;;;;;19.83;55.98;98941.19;5013054;28;20029;-80
2021/09/21 00:52:56;;;;;;;0.20;0.20;;;;;;;19.87;55.98;98943.97;5016242;28;20026;-78
2021/09/21 00:55:21;;;;;;;;;;;;;;;19.84;56.19;98955.53;5013071;28;20088;-79
2021/09/21 00:57:47;;;;;;;0.10;0.10;;;;;;;19.80;56.25;98963.53;5012793;28;19909;-79
2021/09/21 01:00:15;;;;;;;0.13;0.13;;;;;;;19.77;56.46;98952.56;5012496;28;20021;-78
2021/09/21 01:02:41;;;;;;;0.30;0.30;;;;;;;19.77;56.24;98956.06;5012949;28;20113;-79
2021/09/21 01:05:08;;;;;;;0.20;0.20;;;;;;;19.76;56.14;98965.34;5012588;28;20080;-78
2021/09/21 01:07:42;;;;;;;0.20;0.20;;;;;;;19.71;56.45;98962.84;5022110;28;20163;-78
2021/09/21 01:10:18;;;;;;;0.98;0.22;;;;;;;19.70;56.52;98968.63;5032265;28;20116;-78
2021/09/21 01:12:44;;;;;;;0.22;0.22;;;;;;;19.66;56.35;98968.50;5032677;28;20037;-78
2021/09/21 01:15:11;;;;;;;0.05;0.05;;;;;;;19.63;56.29;98972.69;5031400;28;20025;-79
2021/09/21 01:17:37;;;;;;;0.00;0.00;;;;;;;19.61;55.86;98971.44;5029481;28;20041;-78
2021/09/21 01:20:03;;;;;;;0.00;0.00;;;;;;;19.61;55.82;98980.38;5032317;28;20025;-79
2021/09/21 01:22:29;;;;;;;0.25;0.25;;;;;;;19.58;54.92;98977.53;5031901;28;20022;-78
2021/09/21 01:24:54;;;;;;;0.08;0.08;;;;;;;19.54;54.82;98974.69;5032094;28;20028;-77
2021/09/21 01:27:20;;;;;;;0.20;0.20;;;;;;;19.54;54.54;98977.41;5031859;28;20472;-79
2021/09/21 01:29:45;;;;;;;0.10;0.10;;;;;;;19.52;54.19;98968.84;5032112;28;20383;-79
2021/09/21 01:32:11;;;;;;;0.63;0.63;;;;;;;19.49;53.81;98969.50;5027087;28;20033;-79
2021/09/21 01:34:36;;;;;;;0.10;0.10;;;;;;;19.45;53.66;98971.31;5011760;28;20026;-78
2021/09/21 01:37:04;;;;;;;0.45;0.45;;;;;;;19.42;53.55;98967.38;5019331;28;20044;-77
2021/09/21 01:39:29;;;;;;;0.10;0.10;;;;;;;19.40;53.93;98966.91;5031648;28;20048;-81
2021/09/21 01:41:55;;;;;;;0.47;0.47;;;;;;;19.38;53.63;98965.66;5031907;28;20122;-77
2021/09/21 01:44:21;;;;;;;0.10;0.10;;;;;;;19.36;53.66;98972.19;5031796;28;20022;-78
2021/09/21 01:46:46;;;;;;;0.10;0.10;;;;;;;19.33;53.54;98974.78;5030786;28;20124;-78
2021/09/21 01:49:17;;;;;;;0.08;0.08;;;;;;;19.30;53.75;98973.56;5031138;28;20026;-77
2021/09/21 01:52:11;;;;;;;0.05;0.05;;;;;;;19.29;53.61;98977.38;5022483;28;20049;-77
2021/09/21 01:59:38;;;;;;;0.10;0.10;;;;;;;19.18;53.60;98982.44;5033071;28;20507;-79
2021/09/21 02:02:04;;;;;;;0.20;0.20;;;;;;;19.10;53.99;98980.59;5030430;28;20022;-78
2021/09/21 02:04:29;;;;;;;0.40;0.40;;;;;;;19.04;54.11;98992.78;5031224;28;20018;-77
2021/09/21 02:06:56;;;;;;;0.10;0.10;;;;;;;19.05;54.33;98994.38;5032273;28;20158;-78
2021/09/21 02:09:22;;;;;;;0.20;0.20;;;;;;;18.99;54.50;98995.72;5020251;28;20124;-79
2021/09/21 02:11:48;;;;;;;0.00;0.00;;;;;;;18.92;54.73;98990.03;5023168;28;20163;-78
2021/09/21 02:14:15;;;;;;;0.28;0.28;;;;;;;18.87;54.61;98993.72;5031099;28;20025;-77
2021/09/21 02:16:42;;;;;;;0.15;0.15;;;;;;;18.81;54.79;98995.84;5031256;28;20055;-77
2021/09/21 02:19:09;;;;;;;0.20;0.20;;;;;;;18.71;54.95;99002.47;5030757;28;20054;-77
2021/09/21 02:21:35;;;;;;;0.10;0.10;;;;;;;18.65;54.84;98994.84;5031276;28;20052;-77
2021/09/21 02:24:02;;;;;;;1.45;0.80;;;;;;;18.58;54.82;98998.09;5030626;28;20025;-78
2021/09/21 02:26:28;;;;;;;0.00;0.00;;;;;;;18.56;54.34;99001.13;5029519;28;20469;-78
2021/09/21 02:28:53;;;;;;;0.30;0.30;;;;;;;18.49;53.70;98995.47;5030769;28;20025;-76
2021/09/21 02:31:19;;;;;;;0.10;0.10;;;;;;;18.45;53.69;98999.94;5030588;28;20663;-77
2021/09/21 02:33:46;;;;;;;0.45;0.45;;;;;;;18.40;53.69;99002.84;5031450;28;20083;-77
2021/09/21 02:36:12;;;;;;;0.10;0.10;;;;;;;18.35;53.44;99003.84;5029744;28;20036;-76
2021/09/21 02:38:37;;;;;;;0.00;0.00;;;;;;;18.30;53.19;99003.25;5012248;28;20029;-76
2021/09/21 02:41:04;;;;;;;0.10;0.10;;;;;;;18.26;53.21;99003.13;5011901;28;20030;-77
2021/09/21 02:43:30;;;;;;;0.47;0.38;;;;;;;18.23;53.57;99011.88;5021558;28;20025;-76
2021/09/21 02:45:59;;;;;;;0.10;0.10;;;;;;;18.20;53.04;99010.63;5022146;28;20082;-79
2021/09/21 02:48:24;;;;;;;0.35;0.20;;;;;;;18.16;52.92;99017.00;5030184;28;20468;-76
2021/09/21 02:50:49;;;;;;;0.30;0.30;;;;;;;18.12;53.29;99019.56;5031045;28;20036;-77
2021/09/21 02:53:17;;;;;;;0.10;0.10;;;;;;;18.07;53.24;99028.66;5029239;28;20029;-77
2021/09/21 02:55:43;;;;;;;0.70;0.47;;;;;;;18.07;53.24;99025.97;5031914;28;20026;-77
2021/09/21 02:58:08;;;;;;;0.03;0.03;;;;;;;18.05;53.14;99024.72;5030911;28;20024;-78
2021/09/21 03:00:33;;;;;;;0.22;0.22;;;;;;;18.01;53.19;99021.06;5030137;28;20460;-77
2021/09/21 03:03:02;;;;;;;0.40;0.40;;;;;;;17.98;53.05;99027.94;5031472;28;20025;-78
2021/09/21 03:05:31;;;;;;;0.35;0.35;;;;;;;17.95;53.00;99023.16;5031422;28;20025;-77
2021/09/21 03:08:06;;;;;;;0.10;0.10;;;;;;;17.89;53.01;99030.66;5027710;28;20136;-78
2021/09/21 03:18:10;;;;;;;0.10;0.10;;;;;;;17.78;53.08;99042.94;5029845;28;20065;-77
2021/09/21 03:20:35;;;;;;;0.00;0.00;;;;;;;17.76;53.15;99039.78;5031699;28;20017;-77
2021/09/21 03:23:00;;;;;;;0.32;0.32;;;;;;;17.72;53.00;99036.13;5029595;28;20029;-77
2021/09/21 03:25:26;;;;;;;0.25;0.25;;;;;;;17.75;53.16;99046.31;5009998;28;20029;-78
2021/09/21 03:27:51;;;;;;;0.00;0.00;;;;;;;17.75;53.31;99055.19;5010298;28;20080;-78
2021/09/21 03:30:17;;;;;;;0.17;0.10;;;;;;;17.73;53.18;99049.31;5019150;28;20103;-78
2021/09/21 03:32:42;;;;;;;0.20;0.20;;;;;;;17.70;53.32;99062.69;5030783;28;20039;-78
2021/09/21 03:35:09;;;;;;;1.17;1.08;;;;;;;17.69;53.43;99071.94;5030617;28;20039;-78
2021/09/21 03:37:36;;;;;;;0.00;0.00;;;;;;;17.66;53.34;99080.69;5029660;28;20067;-77
2021/09/21 03:40:06;;;;;;;0.10;0.10;;;;;;;17.59;53.93;99081.19;5019175;28;20034;-77
2021/09/21 03:42:31;;;;;;;0.05;0.05;;;;;;;17.51;54.54;99079.28;5014506;28;20101;-77
2021/09/21 03:44:57;;;;;;;0.35;0.35;;;;;;;17.44;54.69;99077.06;5015316;28;20032;-76
2021/09/21 03:47:22;;;;;;;0.60;0.60;;;;;;;17.32;55.02;99082.34;5030494;28;20026;-78
2021/09/21 03:49:47;;;;;;;0.00;0.00;;;;;;;17.25;55.32;99097.13;5022818;28;20026;-77
2021/09/21 03:52:13;;;;;;;0.10;0.10;;;;;;;17.19;55.48;99103.03;5017700;28;20029;-78
2021/09/21 03:54:38;;;;;;;0.20;0.20;;;;;;;17.12;55.70;99107.00;5029916;28;20387;-79
2021/09/21 03:57:04;;;;;;;0.30;0.30;;;;;;;17.09;56.04;99110.31;5028844;28;20021;-79
2021/09/21 03:59:29;;;;;;;0.15;0.15;;;;;;;17.07;55.98;99106.34;5015349;28;20022;-79
2021/09/21 04:01:55;;;;;;;0.40;0.40;;;;;;;17.01;56.26;99107.63;5033604;28;20556;-79
2021/09/21 04:04:20;;;;;;;0.10;0.10;;;;;;;16.99;56.18;99126.06;5019884;28;20026;-81
2021/09/21 04:06:48;;;;;;;0.00;0.00;;;;;;;16.96;56.13;99125.56;5033112;28;20399;-79
2021/09/21 04:09:14;;;;;;;0.22;0.22;;;;;;;16.92;56.65;99134.66;5033181;28;20028;-80
2021/09/21 04:11:39;;;;;;;0.10;0.10;;;;;;;16.89;56.73;99127.13;5033433;28;20037;-78
2021/09/21 04:14:05;;;;;;;0.20;0.20;;;;;;;16.89;56.82;99119.03;5032875;28;20037;-77
2021/09/21 04:16:31;;;;;;;0.20;0.20;;;;;;;16.90;56.67;99124.09;5034086;28;20020;-76
2021/09/21 04:18:57;;;;;;;0.43;0.43;;;;;;;16.92;56.73;99130.03;5033614;28;20058;-76
2021/09/21 04:21:24;;;;;;;0.20;0.20;;;;;;;16.94;56.31;99141.31;5025129;28;20441;-79
2021/09/21 04:23:49;;;;;;;0.10;0.10;;;;;;;17.04;56.51;99145.63;5026293;28;20029;-81
2021/09/21 04:26:15;;;;;;;0.10;0.10;;;;;;;17.16;56.26;99147.66;5022019;28;20017;-81
2021/09/21 04:28:40;;;;;;;0.10;0.10;;;;;;;17.29;56.04;99140.53;5025223;28;20025;-76
2021/09/21 04:31:10;;;;;;;0.35;0.35;;;;;;;17.43;55.49;99145.75;5024924;28;20537;-77
2021/09/21 04:33:40;;;;;;;0.40;0.40;;;;;;;17.59;55.08;99146.88;5027690;28;20036;-76
2021/09/21 04:36:08;;;;;;;0.20;0.20;;;;;;;17.74;54.74;99158.31;5030638;28;20139;-76
2021/09/21 04:38:35;;;;;;;0.17;0.15;;;;;;;17.95;54.37;99160.38;5033276;28;20457;-75
2021/09/21 04:41:00;;;;;;;0.90;0.38;;;;;;;18.07;53.62;99158.56;5033764;28;20056;-76
2021/09/21 04:43:26;;;;;;;0.20;0.20;;;;;;;18.21;53.16;99163.78;5031806;28;20476;-76
2021/09/21 04:45:52;;;;;;;0.00;0.00;;;;;;;18.32;52.82;99168.84;5033040;28;20017;-76
2021/09/21 04:48:17;;;;;;;0.10;0.10;;;;;;;18.48;52.70;99174.50;5033401;28;20029;-76
2021/09/21 04:50:43;;;;;;;0.63;0.10;;;;;;;18.71;52.60;99185.84;5033574;28;20025;-76
2021/09/21 04:53:09;;;;;;;0.47;0.47;;;;;;;18.88;52.03;99177.66;5033567;28;20419;-77
2021/09/21 04:55:34;;;;;;;0.03;0.03;;;;;;;19.10;51.15;99185.81;5033218;28;20112;-76
2021/09/21 04:57:59;;;;;;;0.17;0.17;;;;;;;19.27;50.64;99184.91;5032017;28;20032;-76
2021/09/21 05:00:25;;;;;;;0.15;0.15;;;;;;;19.49;50.26;99181.88;5033144;28;20084;-76
2021/09/21 05:02:50;;;;;;;0.22;0.22;;;;;;;19.77;49.73;99181.28;5032369;28;20452;-76
2021/09/21 05:05:16;;;;;;;0.00;0.00;;;;;;;19.96;48.78;99196.31;5032805;28;20023;-75
2021/09/21 05:07:42;;;;;;;0.00;0.00;;;;;;;20.20;48.06;99208.34;5032008;28;20049;-76
2021/09/21 05:10:08;;;;;;;0.30;0.30;;;;;;;20.39;47.65;99194.22;5033060;28;20104;-75
2021/09/21 05:12:34;;;;;;;0.45;0.45;;;;;;;20.52;46.98;99184.97;5033136;28;20083;-75
2021/09/21 05:15:00;;;;;;;0.10;0.10;;;;;;;20.64;46.89;99193.09;5031867;28;20087;-75
2021/09/21 05:17:25;;;;;;;0.40;0.32;;;;;;;20.74;46.78;99197.31;5031337;28;20037;-75
2021/09/21 05:19:51;;;;;;;0.10;0.10;;;;;;;20.82;46.38;99211.13;5032772;28;20484;-75
2021/09/21 05:22:16;;;;;;;0.77;0.77;;;;;;;20.82;46.22;99201.03;5032656;28;20028;-75
2021/09/21 05:24:41;;;;;;;0.00;0.00;;;;;;;20.78;46.64;99202.88;5032732;28;20021;-75
2021/09/21 05:27:07;;;;;;;0.47;0.47;;;;;;;20.73;46.78;99217.47;5032760;28;20029;-75
2021/09/21 05:29:32;;;;;;;0.00;0.00;;;;;;;20.52;46.97;99227.63;5032680;28;20026;-75
2021/09/21 05:31:59;;;;;;;1.00;1.00;;;;;;;20.30;47.73;99230.44;5033120;28;20018;-75
2021/09/21 05:34:25;;;;;;;0.25;0.25;;;;;;;20.15;48.02;99237.31;5032555;28;20461;-75
2021/09/21 05:36:50;;;;;;;0.43;0.43;;;;;;;20.07;48.43;99232.75;5033019;28;20025;-76
2021/09/21 05:39:16;;;;;;;0.20;0.15;;;;;;;19.97;48.63;99242.09;5032255;28;20033;-76
2021/09/21 05:41:41;;;;;;;0.73;0.73;;;;;;;19.83;48.92;99241.56;5033006;28;20025;-75
2021/09/21 05:44:07;;;;;;;0.20;0.20;;;;;;;19.81;48.96;99243.81;5032525;28;20164;-75
2021/09/21 05:46:33;;;;;;;0.10;0.10;;;;;;;19.82;49.03;99250.81;5031986;28;20021;-76
2021/09/21 05:48:59;;;;;;;0.30;0.30;;;;;;;19.81;49.15;99247.34;5032687;28;20025;-75
2021/09/21 05:51:26;;;;;;;0.40;0.40;;;;;;;19.81;49.32;99254.66;5032182;28;20078;-76
2021/09/21 05:53:53;;;;;;;0.63;0.63;;;;;;;19.90;49.56;99258.13;5031164;28;20034;-76
2021/09/21 05:56:19;;;;;;;0.17;0.17;;;;;;;19.91;48.91;99257.00;5030801;28;20022;-76
2021/09/21 05:58:44;;;;;;;0.57;0.57;;;;;;;19.97;49.03;99255.69;5032437;28;20033;-75
2021/09/21 06:01:10;;;;;;;0.30;0.30;;;;;;;19.96;48.93;99264.94;5032653;28;20036;-76
2021/09/21 06:03:35;;;;;;;0.10;0.10;;;;;;;19.98;48.50;99264.59;5031611;28;20020;-76
2021/09/21 06:06:01;;;;;;;0.10;0.10;;;;;;;20.04;48.41;99273.34;5032146;28;20053;-75
2021/09/21 06:08:27;;;;;;;0.22;0.22;;;;;;;20.10;48.32;99266.56;5031966;28;20035;-76
2021/09/21 06:10:52;;;;;;;0.05;0.05;;;;;;;20.15;47.69;99267.16;5032174;28;20025;-76
2021/09/21 06:13:17;;;;;;;0.20;0.20;;;;;;;20.19;47.79;99267.28;5030562;28;20017;-76
2021/09/21 06:15:43;;;;;;;0.17;0.17;;;;;;;20.24;47.63;99269.78;5030642;28;20025;-76
2021/09/21 06:18:08;;;;;;;0.95;0.93;;;;;;;20.23;47.56;99267.41;5031342;28;20498;-76
2021/09/21 06:20:35;;;;;;;0.43;0.43;;;;;;;20.28;47.55;99267.97;5031698;28;20013;-76
2021/09/21 06:23:00;;;;;;;0.25;0.25;;;;;;;20.27;47.24;99263.69;5031526;28;20456;-74
2021/09/21 06:25:26;;;;;;;1.15;0.22;;;;;;;20.24;46.41;99271.72;5031411;28;20021;-75
2021/09/21 06:27:51;;;;;;;0.30;0.30;;;;;;;20.21;46.26;99275.09;5031868;28;20025;-75
2021/09/21 06:30:17;;;;;;;0.08;0.08;;;;;;;20.13;46.71;99284.94;5031567;28;20027;-77
2021/09/21 06:32:42;;;;;;;0.45;0.45;;;;;;;20.11;46.61;99279.81;5030379;28;20091;-74
2021/09/21 06:35:09;;;;;;;0.10;0.10;;;;;;;20.07;46.38;99280.84;5031592;28;20056;-75
2021/09/21 06:37:34;;;;;;;0.20;0.20;;;;;;;20.03;46.48;99294.28;5031464;28;20029;-75
2021/09/21 06:40:00;;;;;;;0.10;0.10;;;;;;;19.97;46.70;99287.47;5031587;28;20024;-75
2021/09/21 06:42:26;;;;;;;0.10;0.10;;;;;;;19.99;46.84;99293.34;5031501;28;20022;-75
2021/09/21 06:44:51;;;;;;;0.10;0.10;;;;;;;19.93;47.00;99291.97;5031654;28;20017;-77
2021/09/21 06:47:17;;;;;;;0.32;0.30;;;;;;;19.86;47.47;99297.94;5031204;28;20029;-75
2021/09/21 06:49:43;;;;;;;0.08;0.08;;;;;;;19.88;47.66;99300.31;5030338;28;20017;-75
2021/09/21 06:52:08;;;;;;;0.30;0.30;;;;;;;19.94;47.43;99315.25;5031192;28;20104;-75
2021/09/21 06:54:34;;;;;;;0.15;0.15;;;;;;;19.94;46.77;99312.56;5031038;28;20430;-77
2021/09/21 06:56:59;;;;;;;0.43;0.43;;;;;;;19.95;46.28;99317.63;5029927;28;20030;-77
2021/09/21 06:59:25;;;;;;;3.42;0.35;;;;;;;20.05;46.69;99311.00;5031309;28;20022;-77
2021/09/21 07:01:50;;;;;;;0.10;0.10;;;;;;;20.15;45.84;99315.22;5030901;28;20075;-77
2021/09/21 07:04:17;;;;;;;0.15;0.13;;;;;;;20.21;45.27;99322.03;5030885;28;20385;-75
2021/09/21 07:06:43;;;;;;;0.25;0.25;;;;;;;20.29;44.77;99326.59;5029867;28;20457;-77
2021/09/21 07:09:08;;;;;;;0.00;0.00;;;;;;;20.34;44.80;99327.53;5030883;28;20045;-77
2021/09/21 07:11:33;;;;;;;0.05;0.05;;;;;;;20.41;44.67;99334.00;5030743;28;20024;-77
2021/09/21 07:13:59;;;;;;;0.10;0.10;;;;;;;20.46;44.42;99317.50;5031213;28;20022;-77
2021/09/21 07:16:24;;;;;;;0.82;0.82;;;;;;;20.52;44.26;99322.69;5029445;28;20021;-77
2021/09/21 07:18:50;;;;;;;0.10;0.10;;;;;;;20.63;44.36;99329.31;5029458;28;20053;-77
2021/09/21 07:21:15;;;;;;;0.20;0.20;;;;;;;20.68;43.92;99320.13;5031141;28;20075;-77
2021/09/21 07:23:40;;;;;;;0.00;0.00;;;;;;;20.78;43.90;99331.41;5029591;28;20025;-77
2021/09/21 07:26:08;;;;;;;0.10;0.10;;;;;;;20.85;44.10;99332.75;5030838;28;20028;-76
2021/09/21 07:28:33;;;;;;;0.00;0.00;;;;;;;20.86;43.20;99332.44;5030873;28;20026;-76
2021/09/21 07:30:59;;;;;;;1.50;0.88;;;;;;;20.81;42.52;99329.91;5033648;28;20124;-76
2021/09/21 07:33:24;;;;;;;0.10;0.10;;;;;;;20.83;42.81;99327.66;5035165;28;20021;-77
2021/09/21 07:35:50;;;;;;;0.20;0.20;;;;;;;20.82;42.89;99336.94;5033832;28;20541;-77
2021/09/21 07:38:17;;;;;;;0.38;0.38;;;;;;;20.82;42.84;99339.66;5034789;28;20416;-77
2021/09/21 07:40:42;;;;;;;1.00;1.00;;;;;;;20.85;43.44;99339.00;5035011;28;20026;-76
2021/09/21 07:43:08;;;;;;;0.00;0.00;;;;;;;20.87;43.21;99339.47;5034974;28;20426;-76
2021/09/21 07:45:35;;;;;;;0.30;0.30;;;;;;;20.90;43.14;99348.88;5034359;28;20029;-75
2021/09/21 07:48:00;;;;;;;0.10;0.10;;;;;;;20.87;42.55;99354.97;5034897;28;20028;-75
2021/09/21 07:50:26;;;;;;;0.82;0.50;;;;;;;20.81;42.86;99359.81;5034408;28;20030;-75
2021/09/21 07:52:52;;;;;;;0.20;0.20;;;;;;;20.82;43.18;99350.53;5034829;28;20360;-75
2021/09/21 07:55:18;;;;;;;0.88;0.88;;;;;;;20.83;42.82;99354.84;5034414;28;20025;-75
2021/09/21 07:57:44;;;;;;;0.90;0.90;;;;;;;20.84;43.13;99370.03;5034699;28;20017;-76
2021/09/21 08:00:12;;;;;;;0.15;0.15;;;;;;;20.79;43.34;99359.38;5034656;28;20029;-75
2021/09/21 08:02:38;;;;;;;0.25;0.25;;;;;;;20.76;42.85;99366.28;5034450;28;20108;-75
2021/09/21 08:05:04;;;;;;;0.10;0.10;;;;;;;20.71;43.02;99369.16;5034317;28;20064;-75
2021/09/21 08:07:31;;;;;;;0.08;0.08;;;;;;;20.73;43.23;99372.38;5034166;28;20082;-75
2021/09/21 08:09:58;;;;;;;0.10;0.10;;;;;;;20.74;42.59;99373.97;5034146;28;20057;-75
2021/09/21 08:12:28;;;;;;;0.10;0.10;;;;;;;20.79;42.94;99378.41;5034213;28;20025;-75
2021/09/21 08:14:54;;;;;;;0.20;0.20;;;;;;;20.89;42.69;99383.41;5034397;28;20021;-76
2021/09/21 08:17:24;;;;;;;0.15;0.15;;;;;;;20.98;42.33;99377.06;5033694;28;20033;-76
2021/09/21 08:19:50;;;;;;;0.05;0.05;;;;;;;21.15;41.73;99379.56;5034251;28;20063;-76
2021/09/21 08:22:16;;;;;;;0.10;0.10;;;;;;;21.30;40.88;99380.03;5034496;28;20049;-74
2021/09/21 08:24:43;;;;;;;0.20;0.20;;;;;;;21.42;40.46;99371.88;5034344;28;20022;-76
2021/09/21 08:27:08;;;;;;;0.05;0.05;;;;;;;21.57;40.95;99389.50;5033983;28;20108;-76
2021/09/21 08:29:34;;;;;;;0.00;0.00;;;;;;;21.69;40.58;99380.50;5033898;28;20109;-77
2021/09/21 08:31:59;;;;;;;0.68;0.68;;;;;;;21.81;40.29;99388.63;5033801;28;20025;-76
2021/09/21 08:34:26;;;;;;;0.05;0.05;;;;;;;21.93;40.06;99389.78;5034084;28;20014;-77
2021/09/21 08:36:52;;;;;;;0.03;0.03;;;;;;;22.09;39.34;99396.06;5034045;28;20029;-76
2021/09/21 08:39:19;;;;;;;0.10;0.10;;;;;;;22.23;38.81;99387.53;5033574;28;20472;-76
2021/09/21 08:41:44;;;;;;;0.00;0.00;;;;;;;22.38;38.37;99380.56;5032902;28;20021;-76
2021/09/21 08:44:10;;;;;;;0.20;0.20;;;;;;;22.47;38.34;99377.69;5033584;28;20029;-76
2021/09/21 08:46:36;;;;;;;0.00;0.00;;;;;;;22.49;38.09;99384.38;5033573;28;20396;-76
2021/09/21 08:49:02;;;;;;;0.10;0.10;;;;;;;22.54;37.71;99388.78;5034024;28;20090;-77
2021/09/21 08:51:28;;;;;;;0.05;0.05;;;;;;;22.50;37.76;99394.13;5032139;28;20026;-77
2021/09/21 08:53:53;;;;;;;0.10;0.10;;;;;;;22.49;37.45;99392.56;5033365;28;20021;-76
2021/09/21 08:56:20;;;;;;;0.90;0.90;;;;;;;22.49;37.16;99387.09;5033568;28;20032;-76
2021/09/21 08:59:09;;;;;;;0.05;0.05;;;;;;;22.57;37.33;99382.66;5031901;28;20025;-76
2021/09/21 09:01:48;;;;;;;0.00;0.00;;;;;;;22.62;37.27;99384.31;5033417;28;20030;-76
2021/09/21 09:04:16;;;;;;;0.10;0.10;;;;;;;22.53;36.88;99377.09;5033414;28;20021;-76
2021/09/21 09:06:47;;;;;;;0.10;0.10;;;;;;;22.39;36.77;99374.78;5032861;28;20469;-76
2021/09/21 09:09:24;;;;;;;0.30;0.30;;;;;;;22.39;37.16;99376.72;5033675;28;20350;-76
2021/09/21 09:11:52;;;;;;;0.10;0.10;;;;;;;22.35;36.84;99382.03;5033337;28;20048;-77
2021/09/21 09:14:25;;;;;;;;;;;;;;;22.33;37.47;99367.97;5032390;28;20024;-76
2021/09/21 09:16:55;;;;;;;0.05;0.05;;;;;;;22.29;37.49;99386.16;5033074;28;19912;-76
2021/09/21 09:19:28;;;;;;;0.10;0.10;;;;;;;22.26;36.87;99377.88;5033093;28;20044;-76
2021/09/21 09:21:53;;;;;;;0.20;0.20;;;;;;;22.12;37.02;99381.78;5033095;28;20098;-76
2021/09/21 09:24:20;;;;;;;0.00;0.00;;;;;;;22.04;38.01;99383.47;5033329;28;20021;-76
2021/09/21 09:26:47;;;;;;;0.65;0.65;;;;;;;22.07;37.32;99374.63;5031667;28;20385;-76
2021/09/21 09:29:15;;;;;;;0.28;0.22;;;;;;;22.12;37.40;99378.25;5032908;28;20017;-76
2021/09/21 09:31:44;;;;;;;0.10;0.10;;;;;;;22.19;37.43;99387.44;5032715;28;20083;-76
2021/09/21 09:34:26;;;;;;;0.10;0.10;;;;;;;22.22;37.05;99372.31;5032848;28;20045;-75
2021/09/21 09:37:02;;;;;;;0.20;0.20;;;;;;;22.29;36.86;99385.34;5031525;28;20025;-76
2021/09/21 09:39:30;;;;;;;0.10;0.10;;;;;;;22.38;36.29;99380.56;5032819;28;20033;-77
2021/09/21 09:41:58;;;;;;;0.10;0.10;;;;;;;22.43;36.41;99380.31;5032697;28;20028;-76
2021/09/21 09:44:27;;;;;;;0.10;0.10;;;;;;;22.48;36.39;99382.78;5032609;28;20380;-77
2021/09/21 09:47:04;;;;;;;0.10;0.10;;;;;;;22.50;35.49;99385.19;5032624;28;20033;-77
2021/09/21 09:49:31;;;;;;;0.22;0.22;;;;;;;22.53;34.83;99389.91;5032146;28;20388;-76
2021/09/21 09:52:10;;;;;;;0.63;0.63;;;;;;;22.60;35.28;99381.16;5031743;28;20464;-76
2021/09/21 09:54:38;;;;;;;0.20;0.20;;;;;;;22.58;35.35;99381.50;5032507;28;20021;-77
2021/09/21 09:57:05;;;;;;;0.00;0.00;;;;;;;22.60;35.87;99383.88;5032361;28;20026;-76
2021/09/21 09:59:31;;;;;;;0.00;0.00;;;;;;;22.65;36.02;99372.72;5032128;28;20039;-77
2021/09/21 10:01:56;;;;;;;0.20;0.20;;;;;;;22.57;35.16;99377.19;5032011;28;20092;-76
2021/09/21 10:04:23;;;;;;;0.20;0.20;;;;;;;22.47;36.09;99356.69;5031967;28;20025;-76
2021/09/21 10:06:49;;;;;;;0.20;0.20;;;;;;;22.50;35.99;99361.44;5032330;28;20025;-76
2021/09/21 10:09:15;;;;;;;0.03;0.03;;;;;;;22.52;35.46;99359.16;5032137;28;20029;-76
2021/09/21 10:11:44;;;;;;;0.45;0.45;;;;;;;22.48;35.17;99366.44;5031847;28;20025;-76
2021/09/21 10:14:12;;;;;;;0.17;0.17;;;;;;;22.42;35.57;99364.31;5032176;28;20040;-76
2021/09/21 10:17:03;;;;;;;0.00;0.00;;;;;;;22.45;35.35;99364.41;5031924;28;20025;-77
2021/09/21 10:19:31;;;;;;;0.10;0.10;;;;;;;22.48;35.36;99368.38;5031718;28;20048;-76
2021/09/21 10:21:58;;;;;;;0.60;0.60;;;;;;;22.36;35.22;99352.84;5031756;28;20032;-75
2021/09/21 10:24:32;;;;;;;0.15;0.15;;;;;;;22.33;35.55;99361.72;5030533;28;20113;-77
2021/09/21 10:27:04;;;;;;;0.08;0.08;;;;;;;22.35;35.27;99351.25;5031539;28;20051;-77
2021/09/21 10:29:30;;;;;;;0.20;0.20;;;;;;;22.35;35.02;99352.06;5031375;28;20369;-77
2021/09/21 10:31:57;;;;;;;0.10;0.10;;;;;;;22.38;34.87;99348.66;5030490;28;20032;-77
2021/09/21 10:34:22;;;;;;;0.10;0.10;;;;;;;22.46;35.75;99346.94;5031715;28;20172;-77
2021/09/21 10:36:59;;;;;;;0.10;0.10;;;;;;;22.49;35.13;99346.22;5031692;28;20100;-76
2021/09/21 10:39:25;;;;;;;0.00;0.00;;;;;;;22.53;34.16;99341.69;5031376;28;20388;-77
2021/09/21 10:41:56;;;;;;;0.10;0.10;;;;;;;22.51;34.63;99343.94;5031263;28;20022;-76
2021/09/21 10:44:22;;;;;;;0.20;0.20;;;;;;;22.48;34.59;99354.75;5031318;28;20029;-76
2021/09/21 10:46:50;;;;;;;0.10;0.10;;;;;;;22.44;34.59;99342.97;5030132;28;20404;-76
2021/09/21 10:49:26;;;;;;;0.10;0.10;;;;;;;22.33;34.43;99337.22;5031584;28;20021;-77
2021/09/21 10:51:55;;;;;;;0.10;0.10;;;;;;;22.26;34.66;99342.47;5031018;28;20091;-76
2021/09/21 10:54:38;;;;;;;0.10;0.10;;;;;;;22.25;35.06;99336.19;5031374;28;20033;-76
2021/09/21 10:57:12;;;;;;;0.10;0.10;;;;;;;22.26;34.99;99337.78;5031389;28;20083;-76
2021/09/21 10:59:39;;;;;;;0.08;0.08;;;;;;;22.18;35.22;99338.72;5031082;28;20115;-76
2021/09/21 11:02:07;;;;;;;0.10;0.10;;;;;;;22.19;35.42;99338.41;5030912;28;20022;-76
2021/09/21 11:04:41;;;;;;;0.13;0.13;;;;;;;22.22;35.72;99334.19;5030537;28;20108;-76
2021/09/21 11:07:07;;;;;;;0.00;0.00;;;;;;;22.30;35.68;99335.97;5029735;28;20120;-77
2021/09/21 11:09:32;;;;;;;0.03;0.03;;;;;;;22.38;35.44;99326.06;5029690;28;20104;-77
2021/09/21 11:12:12;;;;;;;0.10;0.10;;;;;;;22.46;35.29;99333.31;5031261;28;20017;-77
2021/09/21 11:14:40;;;;;;;0.10;0.10;;;;;;;22.53;35.58;99319.06;5030641;28;20433;-77
2021/09/21 11:17:06;;;;;;;0.10;0.10;;;;;;;22.63;35.29;99323.19;5030936;28;20025;-75
2021/09/21 11:19:32;;;;;;;0.10;0.10;;;;;;;22.68;35.26;99329.19;5031018;28;20053;-75
2021/09/21 11:22:05;;;;;;;0.10;0.10;;;;;;;22.80;35.25;99322.06;5030702;28;20112;-75
2021/09/21 11:24:31;;;;;;;0.20;0.20;;;;;;;22.67;34.91;99327.59;5030809;28;20094;-75
2021/09/21 11:27:02;;;;;;;0.10;0.10;;;;;;;22.62;35.33;99310.72;5031059;28;20022;-76
2021/09/21 11:29:28;;;;;;;0.10;0.10;;;;;;;22.65;35.28;99310.03;5030783;28;20517;-76
2021/09/21 11:31:53;;;;;;;0.10;0.10;;;;;;;22.73;35.12;99300.09;5029659;28;20052;-77
2021/09/21 11:34:20;;;;;;;0.00;0.00;;;;;;;22.86;34.87;99307.84;5031011;28;20460;-77
2021/09/21 11:36:49;;;;;;;0.10;0.10;;;;;;;22.94;33.88;99297.09;5030845;28;20176;-76
2021/09/21 11:39:17;;;;;;;0.10;0.10;;;;;;;23.11;34.25;99309.59;5030758;28;20025;-76
2021/09/21 11:41:42;;;;;;;0.47;0.47;;;;;;;23.18;33.94;99309.78;5030474;28;20025;-75
2021/09/21 11:44:08;;;;;;;0.00;0.00;;;;;;;23.32;33.79;99318.28;5030646;28;20036;-75
2021/09/21 11:46:33;;;;;;;0.00;0.00;;;;;;;23.38;33.40;99312.56;5029447;28;20030;-76